Main page

Bucharest, Romania

Henri Coandă International Airport

latitude: 44-33N, longitude: 026-06E, elevation: 95 m

Current weather observation

The report was made 16 minutes ago, at 16:00 UTC
Wind 7 kt from the North/Northeast
Temperature 13°C
Humidity 58%
Pressure 1020 hPa
Visibility 10 km or more
no clouds below 1500 m and no cumulonimbus

METAR: LROP 081600Z 03007KT CAVOK 13/05 Q1020 NOSIG

Time: 19:16 (16:16 UTC)


The report was made 5 hours and 16 minutes ago, at 11:00 UTC
Forecast valid from 08 at 12 UTC to 09 at 12 UTC
Wind 12 kt from the East/Northeast
Visibility 10 km or more
no clouds below 1500 m and no cumulonimbus
from 08 at 15 UTC to 08 at 17 UTC
Wind 3 kt from variable directions
from 08 at 19 UTC to 09 at 01 UTC
Visibility: 5000 m
Broken clouds at a height of 1500 ft
Overcast at a height of 3000 ft

TAF: LROP 081100Z 0812/0912 06012KT CAVOK BECMG 0815/0817 VRB03KT TEMPO 0819/0901 5000 RA BKN015 OVC030


Weather observations and forecasts of more than 4000 airports (METAR and TAF reports).

The available stations are represented by yellow and red dots on the map.

Hover mouse over dot to see the name of the station.

Then click to see weather observations and forecasts.

To change the map : click on the green buttons with a black cross to zoom in, on the green button with a dash to zoom out, or on the green arrows for adjacent maps.